EKVD

Kolding Vamdrup Airport

Kolding / Vamdrup, Denmark
METAR EKVD 191950Z AUTO 26008KT //// ///////// 13/08 Q1021
Observed Flight Rules
Jun-19 @ 19:50 UTC (24 minutes ago)
Wind
260° at 8 knots
Temperatures Readings
Current 13°C / 55°F
Dewpoint 8°C / 46°F
Humidity 72%
Altimeter 30.15" Hg
Pressure 1021 hPa
Elevation 45
METAR EKVD 191950Z AUTO 26008KT //// ///////// 13/08 Q1021
Observed Flight Rules
Jun-19 @ 19:50 UTC
(24 minutes ago)
Wind
260° at 8 knots
Temperature Dewpoint
13°C / 55°F 8°C / 46°F
Humidity Altimeter Pressure
72% 30.15" Hg 1021 hPa